sensor_id;sensor_type;location;lat;lon;timestamp;P1;durP1;ratioP1;P2;durP2;ratioP2
14584;SDS011;7379;51.506;11.876;2022-07-30T00:00:36;3.70;;;3.30;;
14584;SDS011;7379;51.506;11.876;2022-07-30T00:03:03;3.47;;;3.13;;
14584;SDS011;7379;51.506;11.876;2022-07-30T00:05:30;4.93;;;3.30;;
14584;SDS011;7379;51.506;11.876;2022-07-30T00:07:58;3.53;;;3.22;;
14584;SDS011;7379;51.506;11.876;2022-07-30T00:10:25;4.85;;;3.30;;
14584;SDS011;7379;51.506;11.876;2022-07-30T00:12:52;4.13;;;3.33;;
14584;SDS011;7379;51.506;11.876;2022-07-30T00:15:19;4.28;;;3.25;;
14584;SDS011;7379;51.506;11.876;2022-07-30T00:17:45;5.00;;;3.33;;
14584;SDS011;7379;51.506;11.876;2022-07-30T00:20:12;4.07;;;3.47;;
14584;SDS011;7379;51.506;11.876;2022-07-30T00:22:39;5.00;;;3.33;;
14584;SDS011;7379;51.506;11.876;2022-07-30T00:25:07;4.07;;;3.20;;
14584;SDS011;7379;51.506;11.876;2022-07-30T00:27:34;4.63;;;3.40;;
14584;SDS011;7379;51.506;11.876;2022-07-30T00:30:02;4.35;;;3.38;;
14584;SDS011;7379;51.506;11.876;2022-07-30T00:32:30;4.25;;;3.17;;
14584;SDS011;7379;51.506;11.876;2022-07-30T00:34:56;4.80;;;3.13;;
14584;SDS011;7379;51.506;11.876;2022-07-30T00:37:23;4.95;;;3.20;;
14584;SDS011;7379;51.506;11.876;2022-07-30T00:39:50;4.05;;;3.05;;
14584;SDS011;7379;51.506;11.876;2022-07-30T00:42:18;4.10;;;2.95;;
14584;SDS011;7379;51.506;11.876;2022-07-30T00:44:49;4.63;;;3.28;;
14584;SDS011;7379;51.506;11.876;2022-07-30T00:47:16;4.50;;;3.30;;
14584;SDS011;7379;51.506;11.876;2022-07-30T00:49:43;3.63;;;2.90;;
14584;SDS011;7379;51.506;11.876;2022-07-30T00:52:10;5.53;;;3.33;;
14584;SDS011;7379;51.506;11.876;2022-07-30T00:54:37;5.43;;;3.35;;
14584;SDS011;7379;51.506;11.876;2022-07-30T00:57:04;6.07;;;3.75;;
14584;SDS011;7379;51.506;11.876;2022-07-30T00:59:32;4.72;;;3.40;;
14584;SDS011;7379;51.506;11.876;2022-07-30T01:01:59;4.50;;;3.13;;
14584;SDS011;7379;51.506;11.876;2022-07-30T01:04:27;3.75;;;3.45;;
14584;SDS011;7379;51.506;11.876;2022-07-30T01:06:54;4.63;;;3.20;;
14584;SDS011;7379;51.506;11.876;2022-07-30T01:09:21;5.05;;;3.60;;
14584;SDS011;7379;51.506;11.876;2022-07-30T01:11:48;5.25;;;3.35;;
14584;SDS011;7379;51.506;11.876;2022-07-30T01:14:15;4.82;;;3.50;;
14584;SDS011;7379;51.506;11.876;2022-07-30T01:16:43;4.90;;;3.60;;
14584;SDS011;7379;51.506;11.876;2022-07-30T01:19:11;4.68;;;3.42;;
14584;SDS011;7379;51.506;11.876;2022-07-30T01:22:02;4.85;;;3.47;;
14584;SDS011;7379;51.506;11.876;2022-07-30T01:24:37;4.68;;;3.30;;
14584;SDS011;7379;51.506;11.876;2022-07-30T01:27:09;4.28;;;3.45;;
14584;SDS011;7379;51.506;11.876;2022-07-30T01:29:39;4.25;;;3.38;;
14584;SDS011;7379;51.506;11.876;2022-07-30T01:32:08;4.45;;;3.50;;
14584;SDS011;7379;51.506;11.876;2022-07-30T01:34:36;5.70;;;3.50;;
14584;SDS011;7379;51.506;11.876;2022-07-30T01:37:04;5.38;;;3.70;;
14584;SDS011;7379;51.506;11.876;2022-07-30T01:39:34;3.95;;;3.53;;
14584;SDS011;7379;51.506;11.876;2022-07-30T01:42:02;3.95;;;3.45;;
14584;SDS011;7379;51.506;11.876;2022-07-30T01:44:32;5.45;;;3.50;;
14584;SDS011;7379;51.506;11.876;2022-07-30T01:47:00;3.63;;;3.33;;
14584;SDS011;7379;51.506;11.876;2022-07-30T01:49:27;4.57;;;3.33;;
14584;SDS011;7379;51.506;11.876;2022-07-30T01:51:55;6.93;;;3.78;;
14584;SDS011;7379;51.506;11.876;2022-07-30T01:54:24;4.43;;;3.35;;
14584;SDS011;7379;51.506;11.876;2022-07-30T01:56:53;5.00;;;3.95;;
14584;SDS011;7379;51.506;11.876;2022-07-30T01:59:21;4.05;;;3.40;;
14584;SDS011;7379;51.506;11.876;2022-07-30T02:01:51;4.25;;;3.67;;
14584;SDS011;7379;51.506;11.876;2022-07-30T02:04:17;4.40;;;3.60;;
14584;SDS011;7379;51.506;11.876;2022-07-30T02:06:46;4.43;;;3.50;;
14584;SDS011;7379;51.506;11.876;2022-07-30T02:09:22;3.78;;;3.42;;
14584;SDS011;7379;51.506;11.876;2022-07-30T02:11:54;4.50;;;3.70;;
14584;SDS011;7379;51.506;11.876;2022-07-30T02:14:42;4.03;;;3.63;;
14584;SDS011;7379;51.506;11.876;2022-07-30T02:17:15;4.85;;;3.75;;
14584;SDS011;7379;51.506;11.876;2022-07-30T02:19:46;4.75;;;3.45;;
14584;SDS011;7379;51.506;11.876;2022-07-30T02:22:16;4.40;;;3.53;;
14584;SDS011;7379;51.506;11.876;2022-07-30T02:24:44;3.72;;;3.40;;
14584;SDS011;7379;51.506;11.876;2022-07-30T02:27:13;4.00;;;3.58;;
14584;SDS011;7379;51.506;11.876;2022-07-30T02:29:45;4.95;;;3.58;;
14584;SDS011;7379;51.506;11.876;2022-07-30T02:32:16;4.05;;;3.60;;
14584;SDS011;7379;51.506;11.876;2022-07-30T02:34:47;4.05;;;3.75;;
14584;SDS011;7379;51.506;11.876;2022-07-30T02:37:18;4.13;;;3.72;;
14584;SDS011;7379;51.506;11.876;2022-07-30T02:39:47;4.78;;;3.70;;
14584;SDS011;7379;51.506;11.876;2022-07-30T02:42:16;4.43;;;3.78;;
14584;SDS011;7379;51.506;11.876;2022-07-30T02:44:44;4.72;;;3.70;;
14584;SDS011;7379;51.506;11.876;2022-07-30T02:47:14;4.03;;;3.63;;
14584;SDS011;7379;51.506;11.876;2022-07-30T02:49:42;4.10;;;3.70;;
14584;SDS011;7379;51.506;11.876;2022-07-30T02:52:11;3.85;;;3.53;;
14584;SDS011;7379;51.506;11.876;2022-07-30T02:54:40;4.88;;;3.92;;
14584;SDS011;7379;51.506;11.876;2022-07-30T02:57:09;5.07;;;4.18;;
14584;SDS011;7379;51.506;11.876;2022-07-30T02:59:36;4.68;;;3.85;;
14584;SDS011;7379;51.506;11.876;2022-07-30T03:02:06;5.40;;;4.03;;
14584;SDS011;7379;51.506;11.876;2022-07-30T03:04:35;5.53;;;4.03;;
14584;SDS011;7379;51.506;11.876;2022-07-30T03:07:03;4.65;;;3.80;;
14584;SDS011;7379;51.506;11.876;2022-07-30T03:09:31;4.15;;;3.70;;
14584;SDS011;7379;51.506;11.876;2022-07-30T03:11:59;6.35;;;4.00;;
14584;SDS011;7379;51.506;11.876;2022-07-30T03:14:28;4.10;;;3.70;;
14584;SDS011;7379;51.506;11.876;2022-07-30T03:16:56;4.80;;;3.78;;
14584;SDS011;7379;51.506;11.876;2022-07-30T03:19:24;5.00;;;3.80;;
14584;SDS011;7379;51.506;11.876;2022-07-30T03:21:57;4.45;;;3.88;;
14584;SDS011;7379;51.506;11.876;2022-07-30T03:24:26;4.82;;;3.63;;
14584;SDS011;7379;51.506;11.876;2022-07-30T03:26:55;4.43;;;3.75;;
14584;SDS011;7379;51.506;11.876;2022-07-30T03:29:24;4.32;;;3.72;;
14584;SDS011;7379;51.506;11.876;2022-07-30T03:31:53;4.32;;;3.92;;
14584;SDS011;7379;51.506;11.876;2022-07-30T03:34:20;7.05;;;4.45;;
14584;SDS011;7379;51.506;11.876;2022-07-30T03:36:48;4.75;;;3.83;;
14584;SDS011;7379;51.506;11.876;2022-07-30T03:39:17;5.20;;;3.92;;
14584;SDS011;7379;51.506;11.876;2022-07-30T03:41:45;6.22;;;4.15;;
14584;SDS011;7379;51.506;11.876;2022-07-30T03:44:12;4.47;;;4.00;;
14584;SDS011;7379;51.506;11.876;2022-07-30T03:46:39;4.50;;;4.07;;
14584;SDS011;7379;51.506;11.876;2022-07-30T03:49:07;4.93;;;4.07;;
14584;SDS011;7379;51.506;11.876;2022-07-30T03:51:35;6.55;;;4.30;;
14584;SDS011;7379;51.506;11.876;2022-07-30T03:54:03;7.50;;;4.32;;
14584;SDS011;7379;51.506;11.876;2022-07-30T03:56:34;6.07;;;4.03;;
14584;SDS011;7379;51.506;11.876;2022-07-30T03:59:02;5.47;;;4.53;;
14584;SDS011;7379;51.506;11.876;2022-07-30T04:01:29;5.05;;;4.18;;
14584;SDS011;7379;51.506;11.876;2022-07-30T04:04:02;4.93;;;4.15;;
14584;SDS011;7379;51.506;11.876;2022-07-30T04:06:29;5.60;;;4.40;;
14584;SDS011;7379;51.506;11.876;2022-07-30T04:08:56;5.13;;;4.40;;
14584;SDS011;7379;51.506;11.876;2022-07-30T04:11:23;7.30;;;4.10;;
14584;SDS011;7379;51.506;11.876;2022-07-30T04:13:51;7.10;;;4.38;;
14584;SDS011;7379;51.506;11.876;2022-07-30T04:16:19;5.43;;;4.05;;
14584;SDS011;7379;51.506;11.876;2022-07-30T04:18:53;5.40;;;4.20;;
14584;SDS011;7379;51.506;11.876;2022-07-30T04:21:21;5.10;;;4.00;;
14584;SDS011;7379;51.506;11.876;2022-07-30T04:23:49;4.47;;;4.05;;
14584;SDS011;7379;51.506;11.876;2022-07-30T04:26:18;5.32;;;4.00;;
14584;SDS011;7379;51.506;11.876;2022-07-30T04:28:46;4.88;;;4.20;;
14584;SDS011;7379;51.506;11.876;2022-07-30T04:31:14;5.75;;;3.92;;
14584;SDS011;7379;51.506;11.876;2022-07-30T04:33:43;5.38;;;4.07;;
14584;SDS011;7379;51.506;11.876;2022-07-30T04:36:10;4.90;;;4.00;;
14584;SDS011;7379;51.506;11.876;2022-07-30T04:38:37;4.68;;;4.20;;
14584;SDS011;7379;51.506;11.876;2022-07-30T04:41:04;4.97;;;4.13;;
14584;SDS011;7379;51.506;11.876;2022-07-30T04:43:31;4.20;;;3.80;;
14584;SDS011;7379;51.506;11.876;2022-07-30T04:45:58;5.13;;;4.20;;
14584;SDS011;7379;51.506;11.876;2022-07-30T04:48:26;4.78;;;4.00;;
14584;SDS011;7379;51.506;11.876;2022-07-30T04:50:54;5.32;;;4.05;;
14584;SDS011;7379;51.506;11.876;2022-07-30T04:53:25;5.57;;;3.90;;
14584;SDS011;7379;51.506;11.876;2022-07-30T04:55:54;6.50;;;4.05;;
14584;SDS011;7379;51.506;11.876;2022-07-30T04:58:24;5.47;;;3.75;;
14584;SDS011;7379;51.506;11.876;2022-07-30T05:00:52;5.13;;;3.95;;
14584;SDS011;7379;51.506;11.876;2022-07-30T05:03:20;6.90;;;4.22;;
14584;SDS011;7379;51.506;11.876;2022-07-30T05:05:51;5.20;;;3.80;;
14584;SDS011;7379;51.506;11.876;2022-07-30T05:08:19;7.22;;;4.03;;
14584;SDS011;7379;51.506;11.876;2022-07-30T05:10:45;4.45;;;3.67;;
14584;SDS011;7379;51.506;11.876;2022-07-30T05:13:12;4.75;;;3.97;;
14584;SDS011;7379;51.506;11.876;2022-07-30T05:15:40;6.65;;;4.05;;
14584;SDS011;7379;51.506;11.876;2022-07-30T05:18:08;5.60;;;3.65;;
14584;SDS011;7379;51.506;11.876;2022-07-30T05:20:35;5.47;;;3.80;;
14584;SDS011;7379;51.506;11.876;2022-07-30T05:23:03;4.53;;;4.10;;
14584;SDS011;7379;51.506;11.876;2022-07-30T05:25:30;6.85;;;4.00;;
14584;SDS011;7379;51.506;11.876;2022-07-30T05:27:57;4.22;;;3.80;;
14584;SDS011;7379;51.506;11.876;2022-07-30T05:30:25;5.82;;;3.92;;
14584;SDS011;7379;51.506;11.876;2022-07-30T05:32:52;4.25;;;3.67;;
14584;SDS011;7379;51.506;11.876;2022-07-30T05:35:18;4.80;;;4.07;;
14584;SDS011;7379;51.506;11.876;2022-07-30T05:37:45;5.13;;;3.85;;
14584;SDS011;7379;51.506;11.876;2022-07-30T05:40:14;5.25;;;3.70;;
14584;SDS011;7379;51.506;11.876;2022-07-30T05:42:40;6.30;;;3.95;;
14584;SDS011;7379;51.506;11.876;2022-07-30T05:45:07;5.78;;;3.78;;
14584;SDS011;7379;51.506;11.876;2022-07-30T05:47:35;5.57;;;3.80;;
14584;SDS011;7379;51.506;11.876;2022-07-30T05:50:01;5.05;;;3.85;;
14584;SDS011;7379;51.506;11.876;2022-07-30T05:52:29;4.45;;;3.70;;
14584;SDS011;7379;51.506;11.876;2022-07-30T05:54:55;5.47;;;3.75;;
14584;SDS011;7379;51.506;11.876;2022-07-30T05:57:23;5.22;;;3.70;;
14584;SDS011;7379;51.506;11.876;2022-07-30T05:59:50;4.25;;;3.58;;
14584;SDS011;7379;51.506;11.876;2022-07-30T06:02:17;5.45;;;3.60;;
14584;SDS011;7379;51.506;11.876;2022-07-30T06:04:44;5.70;;;3.70;;
14584;SDS011;7379;51.506;11.876;2022-07-30T06:07:10;4.10;;;3.70;;
14584;SDS011;7379;51.506;11.876;2022-07-30T06:09:37;5.65;;;3.80;;
14584;SDS011;7379;51.506;11.876;2022-07-30T06:12:04;4.63;;;3.60;;
14584;SDS011;7379;51.506;11.876;2022-07-30T06:14:32;5.47;;;3.72;;
14584;SDS011;7379;51.506;11.876;2022-07-30T06:16:59;5.07;;;3.90;;
14584;SDS011;7379;51.506;11.876;2022-07-30T06:19:26;4.70;;;3.70;;
14584;SDS011;7379;51.506;11.876;2022-07-30T06:21:53;5.50;;;3.58;;
14584;SDS011;7379;51.506;11.876;2022-07-30T06:24:19;4.63;;;3.50;;
14584;SDS011;7379;51.506;11.876;2022-07-30T06:26:46;3.92;;;3.40;;
14584;SDS011;7379;51.506;11.876;2022-07-30T06:29:13;4.70;;;3.40;;
14584;SDS011;7379;51.506;11.876;2022-07-30T06:31:41;3.92;;;3.53;;
14584;SDS011;7379;51.506;11.876;2022-07-30T06:34:08;5.10;;;3.95;;
14584;SDS011;7379;51.506;11.876;2022-07-30T06:36:35;4.70;;;3.20;;
14584;SDS011;7379;51.506;11.876;2022-07-30T06:39:01;3.88;;;3.45;;
14584;SDS011;7379;51.506;11.876;2022-07-30T06:41:28;4.82;;;3.50;;
14584;SDS011;7379;51.506;11.876;2022-07-30T06:43:55;5.10;;;3.70;;
14584;SDS011;7379;51.506;11.876;2022-07-30T06:46:22;5.38;;;3.83;;
14584;SDS011;7379;51.506;11.876;2022-07-30T06:48:50;3.95;;;3.42;;
14584;SDS011;7379;51.506;11.876;2022-07-30T06:51:17;4.05;;;3.65;;
14584;SDS011;7379;51.506;11.876;2022-07-30T06:53:43;5.68;;;3.45;;
14584;SDS011;7379;51.506;11.876;2022-07-30T06:56:10;5.05;;;3.47;;
14584;SDS011;7379;51.506;11.876;2022-07-30T06:58:38;3.72;;;3.38;;
14584;SDS011;7379;51.506;11.876;2022-07-30T07:01:04;4.07;;;3.47;;
14584;SDS011;7379;51.506;11.876;2022-07-30T07:03:31;4.65;;;3.72;;
14584;SDS011;7379;51.506;11.876;2022-07-30T07:06:00;4.55;;;3.47;;
14584;SDS011;7379;51.506;11.876;2022-07-30T07:08:27;6.13;;;3.60;;
14584;SDS011;7379;51.506;11.876;2022-07-30T07:10:55;3.97;;;3.50;;
14584;SDS011;7379;51.506;11.876;2022-07-30T07:13:22;4.95;;;3.50;;
14584;SDS011;7379;51.506;11.876;2022-07-30T07:15:49;4.05;;;3.40;;
14584;SDS011;7379;51.506;11.876;2022-07-30T07:18:16;6.88;;;3.63;;
14584;SDS011;7379;51.506;11.876;2022-07-30T07:20:43;4.68;;;3.50;;
14584;SDS011;7379;51.506;11.876;2022-07-30T07:23:12;4.45;;;3.42;;
14584;SDS011;7379;51.506;11.876;2022-07-30T07:25:38;3.42;;;3.10;;
14584;SDS011;7379;51.506;11.876;2022-07-30T07:28:05;4.05;;;3.40;;
14584;SDS011;7379;51.506;11.876;2022-07-30T07:30:32;4.90;;;3.67;;
14584;SDS011;7379;51.506;11.876;2022-07-30T07:32:59;5.63;;;3.55;;
14584;SDS011;7379;51.506;11.876;2022-07-30T07:35:26;5.28;;;3.50;;
14584;SDS011;7379;51.506;11.876;2022-07-30T07:37:53;4.18;;;3.38;;
14584;SDS011;7379;51.506;11.876;2022-07-30T07:40:21;5.20;;;3.80;;
14584;SDS011;7379;51.506;11.876;2022-07-30T07:42:48;5.93;;;3.67;;
14584;SDS011;7379;51.506;11.876;2022-07-30T07:45:15;5.45;;;3.80;;
14584;SDS011;7379;51.506;11.876;2022-07-30T07:47:42;5.95;;;3.60;;
14584;SDS011;7379;51.506;11.876;2022-07-30T07:50:09;6.00;;;3.33;;
14584;SDS011;7379;51.506;11.876;2022-07-30T07:52:37;4.70;;;3.35;;
14584;SDS011;7379;51.506;11.876;2022-07-30T07:55:04;4.78;;;3.45;;
14584;SDS011;7379;51.506;11.876;2022-07-30T07:57:38;5.32;;;3.70;;
14584;SDS011;7379;51.506;11.876;2022-07-30T08:00:05;4.45;;;3.25;;
14584;SDS011;7379;51.506;11.876;2022-07-30T08:02:33;4.13;;;3.33;;
14584;SDS011;7379;51.506;11.876;2022-07-30T08:05:00;4.30;;;3.50;;
14584;SDS011;7379;51.506;11.876;2022-07-30T08:07:27;5.50;;;3.65;;
14584;SDS011;7379;51.506;11.876;2022-07-30T08:09:55;4.90;;;3.40;;
14584;SDS011;7379;51.506;11.876;2022-07-30T08:12:22;4.40;;;3.38;;
14584;SDS011;7379;51.506;11.876;2022-07-30T08:14:50;5.20;;;3.72;;
14584;SDS011;7379;51.506;11.876;2022-07-30T08:17:17;4.13;;;3.70;;
14584;SDS011;7379;51.506;11.876;2022-07-30T08:19:44;4.32;;;3.58;;
14584;SDS011;7379;51.506;11.876;2022-07-30T08:22:11;4.97;;;3.67;;
14584;SDS011;7379;51.506;11.876;2022-07-30T08:24:38;4.63;;;3.50;;
14584;SDS011;7379;51.506;11.876;2022-07-30T08:27:05;4.72;;;3.28;;
14584;SDS011;7379;51.506;11.876;2022-07-30T08:29:32;5.32;;;3.38;;
14584;SDS011;7379;51.506;11.876;2022-07-30T08:32:01;4.63;;;3.00;;
14584;SDS011;7379;51.506;11.876;2022-07-30T08:34:27;4.35;;;3.53;;
14584;SDS011;7379;51.506;11.876;2022-07-30T08:36:54;4.70;;;3.45;;
14584;SDS011;7379;51.506;11.876;2022-07-30T08:39:21;3.58;;;3.20;;
14584;SDS011;7379;51.506;11.876;2022-07-30T08:41:48;3.63;;;3.33;;
14584;SDS011;7379;51.506;11.876;2022-07-30T08:44:16;5.32;;;3.30;;
14584;SDS011;7379;51.506;11.876;2022-07-30T08:46:45;6.13;;;3.50;;
14584;SDS011;7379;51.506;11.876;2022-07-30T08:49:15;4.13;;;3.40;;
14584;SDS011;7379;51.506;11.876;2022-07-30T08:51:43;3.95;;;3.33;;
14584;SDS011;7379;51.506;11.876;2022-07-30T08:54:09;6.65;;;3.55;;
14584;SDS011;7379;51.506;11.876;2022-07-30T08:56:36;4.55;;;3.45;;
14584;SDS011;7379;51.506;11.876;2022-07-30T08:59:03;3.80;;;3.42;;
14584;SDS011;7379;51.506;11.876;2022-07-30T09:01:30;4.93;;;3.58;;
14584;SDS011;7379;51.506;11.876;2022-07-30T09:03:57;4.82;;;3.40;;
14584;SDS011;7379;51.506;11.876;2022-07-30T09:06:25;4.95;;;3.50;;
14584;SDS011;7379;51.506;11.876;2022-07-30T09:08:52;4.20;;;3.55;;
14584;SDS011;7379;51.506;11.876;2022-07-30T09:11:19;4.72;;;3.58;;
14584;SDS011;7379;51.506;11.876;2022-07-30T09:13:46;3.88;;;3.50;;
14584;SDS011;7379;51.506;11.876;2022-07-30T09:16:18;3.97;;;3.58;;
14584;SDS011;7379;51.506;11.876;2022-07-30T09:18:46;4.88;;;3.60;;
14584;SDS011;7379;51.506;11.876;2022-07-30T09:21:14;4.05;;;3.53;;
14584;SDS011;7379;51.506;11.876;2022-07-30T09:23:57;4.07;;;3.42;;
14584;SDS011;7379;51.506;11.876;2022-07-30T09:26:26;3.90;;;3.35;;
14584;SDS011;7379;51.506;11.876;2022-07-30T09:28:53;4.55;;;3.67;;
14584;SDS011;7379;51.506;11.876;2022-07-30T09:31:21;5.88;;;3.88;;
14584;SDS011;7379;51.506;11.876;2022-07-30T09:33:48;4.75;;;3.45;;
14584;SDS011;7379;51.506;11.876;2022-07-30T09:36:16;4.57;;;4.07;;
14584;SDS011;7379;51.506;11.876;2022-07-30T09:38:44;3.80;;;3.35;;
14584;SDS011;7379;51.506;11.876;2022-07-30T09:41:15;5.03;;;3.50;;
14584;SDS011;7379;51.506;11.876;2022-07-30T09:43:47;5.03;;;3.67;;
14584;SDS011;7379;51.506;11.876;2022-07-30T09:46:14;4.35;;;3.47;;
14584;SDS011;7379;51.506;11.876;2022-07-30T09:48:42;4.47;;;3.75;;
14584;SDS011;7379;51.506;11.876;2022-07-30T09:51:11;3.97;;;3.55;;
14584;SDS011;7379;51.506;11.876;2022-07-30T09:53:51;3.97;;;3.58;;
14584;SDS011;7379;51.506;11.876;2022-07-30T09:56:24;4.45;;;4.00;;
14584;SDS011;7379;51.506;11.876;2022-07-30T09:58:52;5.35;;;3.80;;
14584;SDS011;7379;51.506;11.876;2022-07-30T10:01:19;4.95;;;3.78;;
14584;SDS011;7379;51.506;11.876;2022-07-30T10:03:46;5.03;;;3.95;;
14584;SDS011;7379;51.506;11.876;2022-07-30T10:06:13;4.07;;;3.67;;
14584;SDS011;7379;51.506;11.876;2022-07-30T10:08:41;5.60;;;3.67;;
14584;SDS011;7379;51.506;11.876;2022-07-30T10:11:09;4.78;;;3.90;;
14584;SDS011;7379;51.506;11.876;2022-07-30T10:13:39;5.35;;;3.80;;
14584;SDS011;7379;51.506;11.876;2022-07-30T10:16:06;4.45;;;3.83;;
14584;SDS011;7379;51.506;11.876;2022-07-30T10:18:33;5.72;;;3.70;;
14584;SDS011;7379;51.506;11.876;2022-07-30T10:21:00;4.82;;;3.60;;
14584;SDS011;7379;51.506;11.876;2022-07-30T10:23:27;5.53;;;4.00;;
14584;SDS011;7379;51.506;11.876;2022-07-30T10:25:56;4.68;;;4.15;;
14584;SDS011;7379;51.506;11.876;2022-07-30T10:28:24;4.53;;;3.83;;
14584;SDS011;7379;51.506;11.876;2022-07-30T10:30:54;5.03;;;3.90;;
14584;SDS011;7379;51.506;11.876;2022-07-30T10:33:22;4.28;;;3.88;;
14584;SDS011;7379;51.506;11.876;2022-07-30T10:35:51;4.95;;;3.80;;
14584;SDS011;7379;51.506;11.876;2022-07-30T10:38:19;5.00;;;3.90;;
14584;SDS011;7379;51.506;11.876;2022-07-30T10:40:49;5.05;;;3.92;;
14584;SDS011;7379;51.506;11.876;2022-07-30T10:43:23;5.45;;;4.05;;
14584;SDS011;7379;51.506;11.876;2022-07-30T10:46:05;5.03;;;3.83;;
14584;SDS011;7379;51.506;11.876;2022-07-30T10:48:37;5.97;;;3.85;;
14584;SDS011;7379;51.506;11.876;2022-07-30T10:51:04;5.22;;;3.75;;
14584;SDS011;7379;51.506;11.876;2022-07-30T10:53:32;4.25;;;3.80;;
14584;SDS011;7379;51.506;11.876;2022-07-30T10:56:14;5.35;;;4.00;;
14584;SDS011;7379;51.506;11.876;2022-07-30T10:58:56;4.53;;;3.80;;
14584;SDS011;7379;51.506;11.876;2022-07-30T11:01:28;4.70;;;4.03;;
14584;SDS011;7379;51.506;11.876;2022-07-30T11:04:30;6.18;;;4.15;;
14584;SDS011;7379;51.506;11.876;2022-07-30T11:09:53;5.97;;;4.05;;
14584;SDS011;7379;51.506;11.876;2022-07-30T11:15:20;4.57;;;3.83;;
14584;SDS011;7379;51.506;11.876;2022-07-30T11:18:05;5.82;;;4.30;;
14584;SDS011;7379;51.506;11.876;2022-07-30T11:20:33;5.93;;;4.00;;
14584;SDS011;7379;51.506;11.876;2022-07-30T11:23:07;5.35;;;4.25;;
14584;SDS011;7379;51.506;11.876;2022-07-30T11:25:58;5.85;;;4.47;;
14584;SDS011;7379;51.506;11.876;2022-07-30T11:28:34;7.18;;;4.80;;
14584;SDS011;7379;51.506;11.876;2022-07-30T11:31:03;4.95;;;4.30;;
14584;SDS011;7379;51.506;11.876;2022-07-30T11:33:52;6.80;;;5.07;;
14584;SDS011;7379;51.506;11.876;2022-07-30T11:42:33;5.93;;;4.75;;
14584;SDS011;7379;51.506;11.876;2022-07-30T11:45:20;6.13;;;4.63;;
14584;SDS011;7379;51.506;11.876;2022-07-30T11:47:51;7.18;;;4.68;;
14584;SDS011;7379;51.506;11.876;2022-07-30T11:50:20;5.68;;;4.53;;
14584;SDS011;7379;51.506;11.876;2022-07-30T11:52:49;5.55;;;4.47;;
14584;SDS011;7379;51.506;11.876;2022-07-30T11:55:23;6.95;;;4.70;;
14584;SDS011;7379;51.506;11.876;2022-07-30T11:57:52;5.38;;;4.82;;
14584;SDS011;7379;51.506;11.876;2022-07-30T12:00:19;6.20;;;4.78;;
14584;SDS011;7379;51.506;11.876;2022-07-30T12:02:46;5.28;;;4.45;;
14584;SDS011;7379;51.506;11.876;2022-07-30T12:05:23;5.82;;;4.93;;
14584;SDS011;7379;51.506;11.876;2022-07-30T12:07:50;5.13;;;4.63;;
14584;SDS011;7379;51.506;11.876;2022-07-30T12:10:22;5.53;;;4.38;;
14584;SDS011;7379;51.506;11.876;2022-07-30T12:12:49;5.55;;;5.05;;
14584;SDS011;7379;51.506;11.876;2022-07-30T12:15:29;6.22;;;4.72;;
14584;SDS011;7379;51.506;11.876;2022-07-30T12:17:58;4.63;;;4.22;;
14584;SDS011;7379;51.506;11.876;2022-07-30T12:20:27;5.68;;;4.63;;
14584;SDS011;7379;51.506;11.876;2022-07-30T12:22:54;5.95;;;4.82;;
14584;SDS011;7379;51.506;11.876;2022-07-30T12:25:22;4.80;;;4.30;;
14584;SDS011;7379;51.506;11.876;2022-07-30T12:27:49;6.40;;;4.47;;
14584;SDS011;7379;51.506;11.876;2022-07-30T12:30:16;5.22;;;4.63;;
14584;SDS011;7379;51.506;11.876;2022-07-30T12:32:44;5.45;;;4.40;;
14584;SDS011;7379;51.506;11.876;2022-07-30T12:35:12;4.95;;;4.45;;
14584;SDS011;7379;51.506;11.876;2022-07-30T12:37:40;6.03;;;4.45;;
14584;SDS011;7379;51.506;11.876;2022-07-30T12:40:29;5.00;;;4.50;;
14584;SDS011;7379;51.506;11.876;2022-07-30T12:42:55;4.45;;;3.88;;
14584;SDS011;7379;51.506;11.876;2022-07-30T12:45:24;4.90;;;4.40;;
14584;SDS011;7379;51.506;11.876;2022-07-30T12:47:55;4.32;;;3.92;;
14584;SDS011;7379;51.506;11.876;2022-07-30T12:50:22;6.75;;;4.20;;
14584;SDS011;7379;51.506;11.876;2022-07-30T12:52:52;4.55;;;3.85;;
14584;SDS011;7379;51.506;11.876;2022-07-30T12:55:27;5.35;;;4.10;;
14584;SDS011;7379;51.506;11.876;2022-07-30T12:57:56;4.50;;;4.10;;
14584;SDS011;7379;51.506;11.876;2022-07-30T13:00:26;4.50;;;4.10;;
14584;SDS011;7379;51.506;11.876;2022-07-30T13:02:53;5.18;;;4.10;;
14584;SDS011;7379;51.506;11.876;2022-07-30T13:08:15;4.80;;;4.03;;
14584;SDS011;7379;51.506;11.876;2022-07-30T13:10:55;3.75;;;3.45;;
14584;SDS011;7379;51.506;11.876;2022-07-30T13:13:23;5.05;;;4.30;;
14584;SDS011;7379;51.506;11.876;2022-07-30T13:15:57;5.05;;;3.88;;
14584;SDS011;7379;51.506;11.876;2022-07-30T13:18:26;4.88;;;4.20;;
14584;SDS011;7379;51.506;11.876;2022-07-30T13:20:53;4.40;;;3.80;;
14584;SDS011;7379;51.506;11.876;2022-07-30T13:23:21;3.95;;;3.65;;
14584;SDS011;7379;51.506;11.876;2022-07-30T13:25:48;4.25;;;3.85;;
14584;SDS011;7379;51.506;11.876;2022-07-30T13:28:15;5.75;;;4.30;;
14584;SDS011;7379;51.506;11.876;2022-07-30T13:30:42;5.00;;;4.07;;
14584;SDS011;7379;51.506;11.876;2022-07-30T13:33:09;5.13;;;4.22;;
14584;SDS011;7379;51.506;11.876;2022-07-30T13:35:36;4.45;;;4.05;;
14584;SDS011;7379;51.506;11.876;2022-07-30T13:38:03;4.85;;;4.10;;
14584;SDS011;7379;51.506;11.876;2022-07-30T13:40:32;5.65;;;4.28;;
14584;SDS011;7379;51.506;11.876;2022-07-30T13:42:59;4.35;;;3.95;;
14584;SDS011;7379;51.506;11.876;2022-07-30T13:45:26;4.55;;;4.10;;
14584;SDS011;7379;51.506;11.876;2022-07-30T13:47:53;4.22;;;3.83;;
14584;SDS011;7379;51.506;11.876;2022-07-30T13:50:21;4.57;;;4.18;;
14584;SDS011;7379;51.506;11.876;2022-07-30T13:52:47;4.50;;;4.10;;
14584;SDS011;7379;51.506;11.876;2022-07-30T13:55:17;5.10;;;4.07;;
14584;SDS011;7379;51.506;11.876;2022-07-30T13:57:46;4.40;;;4.00;;
14584;SDS011;7379;51.506;11.876;2022-07-30T14:00:12;4.80;;;4.30;;
14584;SDS011;7379;51.506;11.876;2022-07-30T14:02:40;4.72;;;4.30;;
14584;SDS011;7379;51.506;11.876;2022-07-30T14:05:07;4.43;;;4.03;;
14584;SDS011;7379;51.506;11.876;2022-07-30T14:07:34;4.43;;;4.03;;
14584;SDS011;7379;51.506;11.876;2022-07-30T14:10:02;4.28;;;3.90;;
14584;SDS011;7379;51.506;11.876;2022-07-30T14:12:31;4.10;;;3.70;;
14584;SDS011;7379;51.506;11.876;2022-07-30T14:14:59;4.35;;;3.95;;
14584;SDS011;7379;51.506;11.876;2022-07-30T14:17:26;4.65;;;4.13;;
14584;SDS011;7379;51.506;11.876;2022-07-30T14:19:53;4.15;;;3.75;;
14584;SDS011;7379;51.506;11.876;2022-07-30T14:22:20;4.30;;;3.90;;
14584;SDS011;7379;51.506;11.876;2022-07-30T14:24:47;4.28;;;3.83;;
14584;SDS011;7379;51.506;11.876;2022-07-30T14:27:14;4.38;;;3.97;;
14584;SDS011;7379;51.506;11.876;2022-07-30T14:29:43;4.45;;;3.88;;
14584;SDS011;7379;51.506;11.876;2022-07-30T14:32:11;4.40;;;3.97;;
14584;SDS011;7379;51.506;11.876;2022-07-30T14:34:38;4.78;;;3.85;;
14584;SDS011;7379;51.506;11.876;2022-07-30T14:37:05;4.85;;;4.10;;
14584;SDS011;7379;51.506;11.876;2022-07-30T14:39:32;3.85;;;3.55;;
14584;SDS011;7379;51.506;11.876;2022-07-30T14:41:59;5.00;;;4.05;;
14584;SDS011;7379;51.506;11.876;2022-07-30T14:44:26;4.35;;;3.95;;
14584;SDS011;7379;51.506;11.876;2022-07-30T14:46:53;4.65;;;3.88;;
14584;SDS011;7379;51.506;11.876;2022-07-30T14:49:21;4.97;;;4.13;;
14584;SDS011;7379;51.506;11.876;2022-07-30T14:51:48;4.88;;;4.47;;
14584;SDS011;7379;51.506;11.876;2022-07-30T14:54:15;5.05;;;4.00;;
14584;SDS011;7379;51.506;11.876;2022-07-30T14:56:41;4.60;;;4.20;;
14584;SDS011;7379;51.506;11.876;2022-07-30T14:59:08;5.13;;;4.40;;
14584;SDS011;7379;51.506;11.876;2022-07-30T15:01:35;5.05;;;4.30;;
14584;SDS011;7379;51.506;11.876;2022-07-30T15:04:02;4.88;;;4.05;;
14584;SDS011;7379;51.506;11.876;2022-07-30T15:06:34;6.35;;;4.35;;
14584;SDS011;7379;51.506;11.876;2022-07-30T15:09:02;4.38;;;3.97;;
14584;SDS011;7379;51.506;11.876;2022-07-30T15:11:29;4.72;;;4.25;;